sensor_id;sensor_type;location;lat;lon;timestamp;P1;durP1;ratioP1;P2;durP2;ratioP2
11445;SDS011;5779;64.178;15.432;2023-02-28T00:00:14;0.20;;;0.20;;
11445;SDS011;5779;64.178;15.432;2023-02-28T00:03:01;0.20;;;0.20;;
11445;SDS011;5779;64.178;15.432;2023-02-28T00:05:49;0.20;;;0.20;;
11445;SDS011;5779;64.178;15.432;2023-02-28T00:08:37;0.20;;;0.20;;
11445;SDS011;5779;64.178;15.432;2023-02-28T00:11:24;0.20;;;0.20;;
11445;SDS011;5779;64.178;15.432;2023-02-28T00:14:11;0.20;;;0.20;;
11445;SDS011;5779;64.178;15.432;2023-02-28T00:16:58;0.20;;;0.20;;
11445;SDS011;5779;64.178;15.432;2023-02-28T00:19:45;0.20;;;0.20;;
11445;SDS011;5779;64.178;15.432;2023-02-28T00:22:32;0.20;;;0.20;;
11445;SDS011;5779;64.178;15.432;2023-02-28T00:25:21;0.20;;;0.20;;
11445;SDS011;5779;64.178;15.432;2023-02-28T00:28:09;0.30;;;0.30;;
11445;SDS011;5779;64.178;15.432;2023-02-28T00:30:56;0.20;;;0.20;;
11445;SDS011;5779;64.178;15.432;2023-02-28T00:33:44;0.20;;;0.20;;
11445;SDS011;5779;64.178;15.432;2023-02-28T00:36:31;0.20;;;0.20;;
11445;SDS011;5779;64.178;15.432;2023-02-28T00:39:18;0.20;;;0.20;;
11445;SDS011;5779;64.178;15.432;2023-02-28T00:42:06;0.20;;;0.20;;
11445;SDS011;5779;64.178;15.432;2023-02-28T00:44:54;0.23;;;0.23;;
11445;SDS011;5779;64.178;15.432;2023-02-28T00:47:40;0.20;;;0.20;;
11445;SDS011;5779;64.178;15.432;2023-02-28T00:50:27;0.20;;;0.20;;
11445;SDS011;5779;64.178;15.432;2023-02-28T00:53:14;0.20;;;0.20;;
11445;SDS011;5779;64.178;15.432;2023-02-28T00:56:02;0.20;;;0.20;;
11445;SDS011;5779;64.178;15.432;2023-02-28T00:58:50;0.20;;;0.20;;
11445;SDS011;5779;64.178;15.432;2023-02-28T01:01:37;0.20;;;0.20;;
11445;SDS011;5779;64.178;15.432;2023-02-28T01:04:25;0.10;;;0.10;;
11445;SDS011;5779;64.178;15.432;2023-02-28T01:07:12;0.20;;;0.20;;
11445;SDS011;5779;64.178;15.432;2023-02-28T01:10:00;0.23;;;0.23;;
11445;SDS011;5779;64.178;15.432;2023-02-28T01:12:47;0.20;;;0.20;;
11445;SDS011;5779;64.178;15.432;2023-02-28T01:15:36;0.20;;;0.20;;
11445;SDS011;5779;64.178;15.432;2023-02-28T01:18:24;0.20;;;0.20;;
11445;SDS011;5779;64.178;15.432;2023-02-28T01:21:12;0.17;;;0.17;;
11445;SDS011;5779;64.178;15.432;2023-02-28T01:24:00;0.20;;;0.20;;
11445;SDS011;5779;64.178;15.432;2023-02-28T01:26:47;0.20;;;0.20;;
11445;SDS011;5779;64.178;15.432;2023-02-28T01:29:34;0.20;;;0.20;;
11445;SDS011;5779;64.178;15.432;2023-02-28T01:32:22;0.30;;;0.30;;
11445;SDS011;5779;64.178;15.432;2023-02-28T01:35:09;0.30;;;0.30;;
11445;SDS011;5779;64.178;15.432;2023-02-28T01:37:55;0.23;;;0.23;;
11445;SDS011;5779;64.178;15.432;2023-02-28T01:40:42;0.20;;;0.20;;
11445;SDS011;5779;64.178;15.432;2023-02-28T01:43:30;0.27;;;0.27;;
11445;SDS011;5779;64.178;15.432;2023-02-28T01:46:18;0.30;;;0.30;;
11445;SDS011;5779;64.178;15.432;2023-02-28T01:49:09;0.83;;;0.43;;
11445;SDS011;5779;64.178;15.432;2023-02-28T01:52:00;0.30;;;0.30;;
11445;SDS011;5779;64.178;15.432;2023-02-28T01:54:48;0.30;;;0.30;;
11445;SDS011;5779;64.178;15.432;2023-02-28T01:57:38;0.30;;;0.30;;
11445;SDS011;5779;64.178;15.432;2023-02-28T02:00:28;1.10;;;0.40;;
11445;SDS011;5779;64.178;15.432;2023-02-28T02:03:16;1.50;;;0.50;;
11445;SDS011;5779;64.178;15.432;2023-02-28T02:06:07;0.40;;;0.40;;
11445;SDS011;5779;64.178;15.432;2023-02-28T02:08:54;0.93;;;0.63;;
11445;SDS011;5779;64.178;15.432;2023-02-28T02:11:41;0.50;;;0.50;;
11445;SDS011;5779;64.178;15.432;2023-02-28T02:14:36;0.50;;;0.50;;
11445;SDS011;5779;64.178;15.432;2023-02-28T02:17:35;0.47;;;0.43;;
11445;SDS011;5779;64.178;15.432;2023-02-28T02:23:51;1.03;;;0.60;;
11445;SDS011;5779;64.178;15.432;2023-02-28T02:27:22;0.40;;;0.40;;
11445;SDS011;5779;64.178;15.432;2023-02-28T02:30:23;0.40;;;0.40;;
11445;SDS011;5779;64.178;15.432;2023-02-28T02:33:35;1.20;;;0.37;;
11445;SDS011;5779;64.178;15.432;2023-02-28T02:36:45;1.23;;;0.70;;
11445;SDS011;5779;64.178;15.432;2023-02-28T02:39:38;0.30;;;0.30;;
11445;SDS011;5779;64.178;15.432;2023-02-28T02:42:34;0.43;;;0.40;;
11445;SDS011;5779;64.178;15.432;2023-02-28T02:45:27;2.80;;;0.90;;
11445;SDS011;5779;64.178;15.432;2023-02-28T02:48:21;1.40;;;0.70;;
11445;SDS011;5779;64.178;15.432;2023-02-28T02:51:14;3.67;;;1.23;;
11445;SDS011;5779;64.178;15.432;2023-02-28T02:54:04;5.73;;;0.90;;
11445;SDS011;5779;64.178;15.432;2023-02-28T02:56:55;4.07;;;0.53;;
11445;SDS011;5779;64.178;15.432;2023-02-28T02:59:49;1.40;;;0.90;;
11445;SDS011;5779;64.178;15.432;2023-02-28T03:02:37;1.90;;;1.23;;
11445;SDS011;5779;64.178;15.432;2023-02-28T03:05:26;4.67;;;1.10;;
11445;SDS011;5779;64.178;15.432;2023-02-28T03:08:17;1.47;;;0.93;;
11445;SDS011;5779;64.178;15.432;2023-02-28T03:11:05;1.03;;;0.93;;
11445;SDS011;5779;64.178;15.432;2023-02-28T03:14:03;7.00;;;1.40;;
11445;SDS011;5779;64.178;15.432;2023-02-28T03:17:22;4.27;;;1.43;;
11445;SDS011;5779;64.178;15.432;2023-02-28T03:20:25;5.60;;;1.60;;
11445;SDS011;5779;64.178;15.432;2023-02-28T03:23:23;2.47;;;1.20;;
11445;SDS011;5779;64.178;15.432;2023-02-28T03:26:19;2.77;;;1.27;;
11445;SDS011;5779;64.178;15.432;2023-02-28T03:29:10;1.07;;;0.97;;
11445;SDS011;5779;64.178;15.432;2023-02-28T03:32:05;6.20;;;1.60;;
11445;SDS011;5779;64.178;15.432;2023-02-28T03:34:59;0.70;;;0.70;;
11445;SDS011;5779;64.178;15.432;2023-02-28T03:37:54;3.27;;;1.40;;
11445;SDS011;5779;64.178;15.432;2023-02-28T03:40:51;2.23;;;0.90;;
11445;SDS011;5779;64.178;15.432;2023-02-28T03:43:44;9.07;;;2.67;;
11445;SDS011;5779;64.178;15.432;2023-02-28T03:46:37;6.33;;;1.17;;
11445;SDS011;5779;64.178;15.432;2023-02-28T03:49:30;2.23;;;1.10;;
11445;SDS011;5779;64.178;15.432;2023-02-28T03:52:18;1.77;;;1.13;;
11445;SDS011;5779;64.178;15.432;2023-02-28T03:55:10;5.40;;;2.30;;
11445;SDS011;5779;64.178;15.432;2023-02-28T03:58:01;11.00;;;1.93;;
11445;SDS011;5779;64.178;15.432;2023-02-28T04:00:57;6.13;;;1.03;;
11445;SDS011;5779;64.178;15.432;2023-02-28T04:03:52;2.73;;;1.60;;
11445;SDS011;5779;64.178;15.432;2023-02-28T04:06:40;2.17;;;0.90;;
11445;SDS011;5779;64.178;15.432;2023-02-28T04:09:27;3.57;;;1.60;;
11445;SDS011;5779;64.178;15.432;2023-02-28T04:12:14;3.60;;;1.20;;
11445;SDS011;5779;64.178;15.432;2023-02-28T04:15:02;3.73;;;1.10;;
11445;SDS011;5779;64.178;15.432;2023-02-28T04:17:50;2.93;;;0.93;;
11445;SDS011;5779;64.178;15.432;2023-02-28T04:20:37;0.73;;;0.70;;
11445;SDS011;5779;64.178;15.432;2023-02-28T04:23:24;2.73;;;1.57;;
11445;SDS011;5779;64.178;15.432;2023-02-28T04:26:10;11.33;;;1.03;;
11445;SDS011;5779;64.178;15.432;2023-02-28T04:28:57;2.97;;;1.07;;
11445;SDS011;5779;64.178;15.432;2023-02-28T04:31:46;0.93;;;0.70;;
11445;SDS011;5779;64.178;15.432;2023-02-28T04:34:32;4.03;;;1.17;;
11445;SDS011;5779;64.178;15.432;2023-02-28T04:37:19;5.03;;;1.20;;
11445;SDS011;5779;64.178;15.432;2023-02-28T04:40:12;3.30;;;1.23;;
11445;SDS011;5779;64.178;15.432;2023-02-28T04:42:59;3.53;;;1.00;;
11445;SDS011;5779;64.178;15.432;2023-02-28T04:45:47;0.30;;;0.30;;
11445;SDS011;5779;64.178;15.432;2023-02-28T04:48:36;1.37;;;1.13;;
11445;SDS011;5779;64.178;15.432;2023-02-28T04:51:24;16.77;;;1.90;;
11445;SDS011;5779;64.178;15.432;2023-02-28T04:54:11;5.10;;;1.57;;
11445;SDS011;5779;64.178;15.432;2023-02-28T04:57:00;6.77;;;1.70;;
11445;SDS011;5779;64.178;15.432;2023-02-28T04:59:48;14.17;;;1.80;;
11445;SDS011;5779;64.178;15.432;2023-02-28T05:02:35;4.10;;;1.07;;
11445;SDS011;5779;64.178;15.432;2023-02-28T05:05:23;1.43;;;1.03;;
11445;SDS011;5779;64.178;15.432;2023-02-28T05:08:10;3.97;;;0.90;;
11445;SDS011;5779;64.178;15.432;2023-02-28T05:10:57;9.07;;;1.60;;
11445;SDS011;5779;64.178;15.432;2023-02-28T05:13:45;0.63;;;0.60;;
11445;SDS011;5779;64.178;15.432;2023-02-28T05:16:32;8.40;;;0.97;;
11445;SDS011;5779;64.178;15.432;2023-02-28T05:19:19;2.00;;;1.23;;
11445;SDS011;5779;64.178;15.432;2023-02-28T05:22:11;1.50;;;0.80;;
11445;SDS011;5779;64.178;15.432;2023-02-28T05:25:00;1.97;;;0.77;;
11445;SDS011;5779;64.178;15.432;2023-02-28T05:27:47;0.50;;;0.50;;
11445;SDS011;5779;64.178;15.432;2023-02-28T05:30:35;13.27;;;1.40;;
11445;SDS011;5779;64.178;15.432;2023-02-28T05:33:22;4.50;;;0.97;;
11445;SDS011;5779;64.178;15.432;2023-02-28T05:36:09;2.30;;;1.13;;
11445;SDS011;5779;64.178;15.432;2023-02-28T05:38:57;0.67;;;0.47;;
11445;SDS011;5779;64.178;15.432;2023-02-28T05:41:44;6.03;;;0.90;;
11445;SDS011;5779;64.178;15.432;2023-02-28T05:44:31;2.10;;;0.90;;
11445;SDS011;5779;64.178;15.432;2023-02-28T05:47:18;4.40;;;1.13;;
11445;SDS011;5779;64.178;15.432;2023-02-28T05:50:05;2.97;;;1.33;;
11445;SDS011;5779;64.178;15.432;2023-02-28T05:52:54;9.20;;;1.40;;
11445;SDS011;5779;64.178;15.432;2023-02-28T05:55:42;5.20;;;1.70;;
11445;SDS011;5779;64.178;15.432;2023-02-28T05:58:29;1.40;;;0.97;;
11445;SDS011;5779;64.178;15.432;2023-02-28T06:01:20;2.13;;;0.60;;
11445;SDS011;5779;64.178;15.432;2023-02-28T06:04:09;1.60;;;1.23;;
11445;SDS011;5779;64.178;15.432;2023-02-28T06:06:58;5.57;;;1.50;;
11445;SDS011;5779;64.178;15.432;2023-02-28T06:09:45;2.93;;;1.03;;
11445;SDS011;5779;64.178;15.432;2023-02-28T06:12:34;4.80;;;1.47;;
11445;SDS011;5779;64.178;15.432;2023-02-28T06:15:21;6.90;;;0.73;;
11445;SDS011;5779;64.178;15.432;2023-02-28T06:18:07;3.73;;;1.60;;
11445;SDS011;5779;64.178;15.432;2023-02-28T06:20:54;0.80;;;0.80;;
11445;SDS011;5779;64.178;15.432;2023-02-28T06:23:42;8.97;;;1.40;;
11445;SDS011;5779;64.178;15.432;2023-02-28T06:26:29;7.30;;;1.30;;
11445;SDS011;5779;64.178;15.432;2023-02-28T06:29:18;4.00;;;1.57;;
11445;SDS011;5779;64.178;15.432;2023-02-28T06:32:05;2.73;;;1.73;;
11445;SDS011;5779;64.178;15.432;2023-02-28T06:34:52;5.33;;;1.13;;
11445;SDS011;5779;64.178;15.432;2023-02-28T06:37:38;2.83;;;1.27;;
11445;SDS011;5779;64.178;15.432;2023-02-28T06:40:26;2.50;;;0.80;;
11445;SDS011;5779;64.178;15.432;2023-02-28T06:43:16;0.70;;;0.63;;
11445;SDS011;5779;64.178;15.432;2023-02-28T06:46:06;7.77;;;1.43;;
11445;SDS011;5779;64.178;15.432;2023-02-28T06:48:54;3.40;;;1.33;;
11445;SDS011;5779;64.178;15.432;2023-02-28T06:51:41;2.70;;;1.40;;
11445;SDS011;5779;64.178;15.432;2023-02-28T06:54:30;6.60;;;1.70;;
11445;SDS011;5779;64.178;15.432;2023-02-28T06:57:17;3.50;;;1.17;;
11445;SDS011;5779;64.178;15.432;2023-02-28T07:00:05;1.67;;;0.87;;
11445;SDS011;5779;64.178;15.432;2023-02-28T07:02:55;7.77;;;2.00;;
11445;SDS011;5779;64.178;15.432;2023-02-28T07:05:42;3.50;;;1.60;;
11445;SDS011;5779;64.178;15.432;2023-02-28T07:08:29;1.60;;;1.10;;
11445;SDS011;5779;64.178;15.432;2023-02-28T07:11:17;6.73;;;1.37;;
11445;SDS011;5779;64.178;15.432;2023-02-28T07:14:04;4.20;;;1.07;;
11445;SDS011;5779;64.178;15.432;2023-02-28T07:16:50;9.17;;;1.90;;
11445;SDS011;5779;64.178;15.432;2023-02-28T07:19:39;8.90;;;1.60;;
11445;SDS011;5779;64.178;15.432;2023-02-28T07:22:26;9.87;;;0.77;;
11445;SDS011;5779;64.178;15.432;2023-02-28T07:25:13;3.67;;;1.33;;
11445;SDS011;5779;64.178;15.432;2023-02-28T07:28:00;5.53;;;1.30;;
11445;SDS011;5779;64.178;15.432;2023-02-28T07:30:47;0.20;;;0.20;;
11445;SDS011;5779;64.178;15.432;2023-02-28T07:33:34;3.77;;;1.13;;
11445;SDS011;5779;64.178;15.432;2023-02-28T07:36:22;6.00;;;0.90;;
11445;SDS011;5779;64.178;15.432;2023-02-28T07:39:09;0.87;;;0.70;;
11445;SDS011;5779;64.178;15.432;2023-02-28T07:41:55;1.30;;;0.50;;
11445;SDS011;5779;64.178;15.432;2023-02-28T07:44:44;1.93;;;1.30;;
11445;SDS011;5779;64.178;15.432;2023-02-28T07:47:31;2.53;;;0.93;;
11445;SDS011;5779;64.178;15.432;2023-02-28T07:50:18;5.00;;;1.50;;
11445;SDS011;5779;64.178;15.432;2023-02-28T07:53:07;9.73;;;1.60;;
11445;SDS011;5779;64.178;15.432;2023-02-28T07:55:54;4.73;;;1.70;;
11445;SDS011;5779;64.178;15.432;2023-02-28T07:58:42;3.97;;;1.30;;
11445;SDS011;5779;64.178;15.432;2023-02-28T08:01:28;2.77;;;1.50;;
11445;SDS011;5779;64.178;15.432;2023-02-28T08:04:15;1.23;;;1.07;;
11445;SDS011;5779;64.178;15.432;2023-02-28T08:07:03;8.43;;;1.40;;
11445;SDS011;5779;64.178;15.432;2023-02-28T08:09:51;2.63;;;1.23;;
11445;SDS011;5779;64.178;15.432;2023-02-28T08:12:37;6.00;;;1.30;;
11445;SDS011;5779;64.178;15.432;2023-02-28T08:15:24;4.20;;;1.53;;
11445;SDS011;5779;64.178;15.432;2023-02-28T08:18:11;5.40;;;1.43;;
11445;SDS011;5779;64.178;15.432;2023-02-28T08:20:58;4.07;;;1.30;;
11445;SDS011;5779;64.178;15.432;2023-02-28T08:23:46;1.77;;;1.00;;
11445;SDS011;5779;64.178;15.432;2023-02-28T08:26:34;3.87;;;1.20;;
11445;SDS011;5779;64.178;15.432;2023-02-28T08:29:21;4.20;;;1.40;;
11445;SDS011;5779;64.178;15.432;2023-02-28T08:32:08;4.93;;;1.70;;
11445;SDS011;5779;64.178;15.432;2023-02-28T08:34:55;4.10;;;0.70;;
11445;SDS011;5779;64.178;15.432;2023-02-28T08:37:43;3.40;;;1.13;;
11445;SDS011;5779;64.178;15.432;2023-02-28T08:40:30;6.03;;;2.00;;
11445;SDS011;5779;64.178;15.432;2023-02-28T08:43:18;6.93;;;1.13;;
11445;SDS011;5779;64.178;15.432;2023-02-28T08:46:05;5.30;;;1.50;;
11445;SDS011;5779;64.178;15.432;2023-02-28T08:48:52;3.73;;;1.63;;
11445;SDS011;5779;64.178;15.432;2023-02-28T08:51:40;6.57;;;1.37;;
11445;SDS011;5779;64.178;15.432;2023-02-28T08:54:27;3.87;;;1.27;;
11445;SDS011;5779;64.178;15.432;2023-02-28T08:57:16;3.53;;;1.27;;
11445;SDS011;5779;64.178;15.432;2023-02-28T09:00:04;3.13;;;1.07;;
11445;SDS011;5779;64.178;15.432;2023-02-28T09:02:53;2.57;;;0.70;;
11445;SDS011;5779;64.178;15.432;2023-02-28T09:05:40;3.27;;;1.20;;
11445;SDS011;5779;64.178;15.432;2023-02-28T09:08:28;3.67;;;1.33;;
11445;SDS011;5779;64.178;15.432;2023-02-28T09:11:16;8.00;;;1.43;;
11445;SDS011;5779;64.178;15.432;2023-02-28T09:14:03;3.97;;;1.23;;
11445;SDS011;5779;64.178;15.432;2023-02-28T09:16:52;1.70;;;0.90;;
11445;SDS011;5779;64.178;15.432;2023-02-28T09:19:38;5.53;;;0.87;;
11445;SDS011;5779;64.178;15.432;2023-02-28T09:22:26;1.60;;;0.77;;
11445;SDS011;5779;64.178;15.432;2023-02-28T09:25:12;7.60;;;1.30;;
11445;SDS011;5779;64.178;15.432;2023-02-28T09:27:59;0.53;;;0.53;;
11445;SDS011;5779;64.178;15.432;2023-02-28T09:30:47;1.53;;;0.97;;
11445;SDS011;5779;64.178;15.432;2023-02-28T09:33:37;5.00;;;1.13;;
11445;SDS011;5779;64.178;15.432;2023-02-28T09:36:24;2.67;;;0.97;;
11445;SDS011;5779;64.178;15.432;2023-02-28T09:39:14;2.00;;;0.97;;
11445;SDS011;5779;64.178;15.432;2023-02-28T09:42:01;1.63;;;0.80;;
11445;SDS011;5779;64.178;15.432;2023-02-28T09:44:49;1.40;;;1.17;;
11445;SDS011;5779;64.178;15.432;2023-02-28T09:47:38;2.07;;;1.20;;
11445;SDS011;5779;64.178;15.432;2023-02-28T09:50:32;4.97;;;1.13;;
11445;SDS011;5779;64.178;15.432;2023-02-28T09:53:22;1.87;;;0.93;;
11445;SDS011;5779;64.178;15.432;2023-02-28T09:56:19;6.27;;;1.77;;
11445;SDS011;5779;64.178;15.432;2023-02-28T09:59:13;2.93;;;1.30;;
11445;SDS011;5779;64.178;15.432;2023-02-28T10:02:10;4.70;;;0.77;;
11445;SDS011;5779;64.178;15.432;2023-02-28T10:05:07;1.37;;;0.80;;
11445;SDS011;5779;64.178;15.432;2023-02-28T10:08:01;2.47;;;1.07;;
11445;SDS011;5779;64.178;15.432;2023-02-28T10:10:54;4.83;;;1.40;;
11445;SDS011;5779;64.178;15.432;2023-02-28T10:13:46;2.00;;;0.87;;
11445;SDS011;5779;64.178;15.432;2023-02-28T10:16:43;1.43;;;0.73;;
11445;SDS011;5779;64.178;15.432;2023-02-28T10:19:38;1.37;;;0.83;;
11445;SDS011;5779;64.178;15.432;2023-02-28T10:22:30;0.70;;;0.63;;
11445;SDS011;5779;64.178;15.432;2023-02-28T10:25:26;2.37;;;0.57;;
11445;SDS011;5779;64.178;15.432;2023-02-28T10:28:15;3.37;;;1.10;;
11445;SDS011;5779;64.178;15.432;2023-02-28T10:31:03;1.73;;;0.87;;
11445;SDS011;5779;64.178;15.432;2023-02-28T10:33:50;1.07;;;0.80;;
11445;SDS011;5779;64.178;15.432;2023-02-28T10:36:37;2.20;;;1.23;;
11445;SDS011;5779;64.178;15.432;2023-02-28T10:39:34;4.50;;;1.17;;
11445;SDS011;5779;64.178;15.432;2023-02-28T10:42:25;8.43;;;1.23;;
11445;SDS011;5779;64.178;15.432;2023-02-28T10:45:14;2.10;;;0.90;;
11445;SDS011;5779;64.178;15.432;2023-02-28T10:48:04;1.67;;;0.83;;
11445;SDS011;5779;64.178;15.432;2023-02-28T10:51:12;1.27;;;0.90;;
11445;SDS011;5779;64.178;15.432;2023-02-28T10:54:00;0.87;;;0.63;;
11445;SDS011;5779;64.178;15.432;2023-02-28T10:56:54;3.53;;;1.20;;
11445;SDS011;5779;64.178;15.432;2023-02-28T11:00:05;0.93;;;0.80;;
11445;SDS011;5779;64.178;15.432;2023-02-28T11:02:59;8.17;;;1.23;;
11445;SDS011;5779;64.178;15.432;2023-02-28T11:05:45;3.60;;;1.03;;
11445;SDS011;5779;64.178;15.432;2023-02-28T11:08:33;6.43;;;1.23;;
11445;SDS011;5779;64.178;15.432;2023-02-28T11:11:30;1.60;;;0.83;;
11445;SDS011;5779;64.178;15.432;2023-02-28T11:14:33;2.83;;;0.93;;
11445;SDS011;5779;64.178;15.432;2023-02-28T11:17:31;3.97;;;1.23;;
11445;SDS011;5779;64.178;15.432;2023-02-28T11:20:20;1.00;;;0.53;;
11445;SDS011;5779;64.178;15.432;2023-02-28T11:23:11;1.17;;;0.77;;
11445;SDS011;5779;64.178;15.432;2023-02-28T11:26:00;3.43;;;1.03;;
11445;SDS011;5779;64.178;15.432;2023-02-28T11:28:49;2.70;;;0.97;;
11445;SDS011;5779;64.178;15.432;2023-02-28T11:32:03;1.33;;;0.80;;
11445;SDS011;5779;64.178;15.432;2023-02-28T11:35:03;2.27;;;0.97;;
11445;SDS011;5779;64.178;15.432;2023-02-28T11:38:04;1.77;;;0.87;;
11445;SDS011;5779;64.178;15.432;2023-02-28T11:41:02;2.97;;;1.20;;
11445;SDS011;5779;64.178;15.432;2023-02-28T11:44:16;2.90;;;0.87;;
11445;SDS011;5779;64.178;15.432;2023-02-28T11:47:15;5.73;;;1.03;;
11445;SDS011;5779;64.178;15.432;2023-02-28T11:50:14;4.03;;;1.00;;
11445;SDS011;5779;64.178;15.432;2023-02-28T11:53:11;3.93;;;0.90;;
11445;SDS011;5779;64.178;15.432;2023-02-28T11:56:03;2.83;;;1.30;;
11445;SDS011;5779;64.178;15.432;2023-02-28T11:58:59;2.57;;;1.00;;
11445;SDS011;5779;64.178;15.432;2023-02-28T12:02:00;2.50;;;1.30;;
11445;SDS011;5779;64.178;15.432;2023-02-28T12:05:10;5.40;;;1.00;;
11445;SDS011;5779;64.178;15.432;2023-02-28T12:08:14;1.63;;;1.20;;
11445;SDS011;5779;64.178;15.432;2023-02-28T12:11:13;0.50;;;0.50;;
11445;SDS011;5779;64.178;15.432;2023-02-28T12:14:19;0.53;;;0.53;;
11445;SDS011;5779;64.178;15.432;2023-02-28T12:17:32;2.53;;;1.10;;
11445;SDS011;5779;64.178;15.432;2023-02-28T12:20:33;0.90;;;0.40;;
11445;SDS011;5779;64.178;15.432;2023-02-28T12:23:34;2.40;;;1.13;;
11445;SDS011;5779;64.178;15.432;2023-02-28T12:26:38;1.60;;;0.50;;
11445;SDS011;5779;64.178;15.432;2023-02-28T12:29:26;1.50;;;0.70;;
11445;SDS011;5779;64.178;15.432;2023-02-28T12:32:16;2.53;;;0.93;;
11445;SDS011;5779;64.178;15.432;2023-02-28T12:35:11;1.60;;;0.73;;
11445;SDS011;5779;64.178;15.432;2023-02-28T12:38:04;1.87;;;0.80;;
11445;SDS011;5779;64.178;15.432;2023-02-28T12:40:57;1.40;;;0.60;;
11445;SDS011;5779;64.178;15.432;2023-02-28T12:43:47;0.57;;;0.57;;
11445;SDS011;5779;64.178;15.432;2023-02-28T12:46:40;1.50;;;0.80;;
11445;SDS011;5779;64.178;15.432;2023-02-28T12:49:30;0.37;;;0.37;;
11445;SDS011;5779;64.178;15.432;2023-02-28T12:52:22;0.50;;;0.50;;
11445;SDS011;5779;64.178;15.432;2023-02-28T12:55:19;0.40;;;0.40;;
11445;SDS011;5779;64.178;15.432;2023-02-28T12:58:13;0.37;;;0.37;;
11445;SDS011;5779;64.178;15.432;2023-02-28T13:01:29;0.67;;;0.67;;
11445;SDS011;5779;64.178;15.432;2023-02-28T13:04:45;1.03;;;0.60;;
11445;SDS011;5779;64.178;15.432;2023-02-28T13:08:09;2.40;;;0.63;;
11445;SDS011;5779;64.178;15.432;2023-02-28T13:11:10;4.17;;;0.97;;
11445;SDS011;5779;64.178;15.432;2023-02-28T13:14:18;0.50;;;0.50;;
11445;SDS011;5779;64.178;15.432;2023-02-28T13:17:11;3.30;;;0.70;;
11445;SDS011;5779;64.178;15.432;2023-02-28T13:20:04;0.40;;;0.40;;
11445;SDS011;5779;64.178;15.432;2023-02-28T13:23:01;2.00;;;0.80;;
11445;SDS011;5779;64.178;15.432;2023-02-28T13:25:50;3.13;;;0.77;;
11445;SDS011;5779;64.178;15.432;2023-02-28T13:32:29;1.10;;;0.87;;
11445;SDS011;5779;64.178;15.432;2023-02-28T13:38:32;0.53;;;0.37;;
11445;SDS011;5779;64.178;15.432;2023-02-28T13:48:03;0.97;;;0.67;;
11445;SDS011;5779;64.178;15.432;2023-02-28T13:50:51;0.70;;;0.70;;
11445;SDS011;5779;64.178;15.432;2023-02-28T13:53:46;0.90;;;0.70;;
11445;SDS011;5779;64.178;15.432;2023-02-28T13:56:44;0.93;;;0.60;;
11445;SDS011;5779;64.178;15.432;2023-02-28T13:59:38;0.77;;;0.43;;
11445;SDS011;5779;64.178;15.432;2023-02-28T14:02:45;1.17;;;0.50;;
11445;SDS011;5779;64.178;15.432;2023-02-28T14:09:17;0.43;;;0.43;;
11445;SDS011;5779;64.178;15.432;2023-02-28T14:15:49;0.90;;;0.60;;
11445;SDS011;5779;64.178;15.432;2023-02-28T14:18:42;2.77;;;0.50;;
11445;SDS011;5779;64.178;15.432;2023-02-28T14:21:36;1.07;;;0.80;;
11445;SDS011;5779;64.178;15.432;2023-02-28T14:24:41;0.40;;;0.40;;
11445;SDS011;5779;64.178;15.432;2023-02-28T14:27:53;0.57;;;0.57;;
11445;SDS011;5779;64.178;15.432;2023-02-28T14:30:53;0.70;;;0.40;;
11445;SDS011;5779;64.178;15.432;2023-02-28T14:33:57;3.40;;;0.57;;
11445;SDS011;5779;64.178;15.432;2023-02-28T14:36:52;0.70;;;0.67;;
11445;SDS011;5779;64.178;15.432;2023-02-28T14:39:42;1.27;;;0.67;;
11445;SDS011;5779;64.178;15.432;2023-02-28T14:42:31;3.10;;;0.70;;
11445;SDS011;5779;64.178;15.432;2023-02-28T14:45:19;0.57;;;0.57;;
11445;SDS011;5779;64.178;15.432;2023-02-28T14:48:09;0.83;;;0.77;;
11445;SDS011;5779;64.178;15.432;2023-02-28T14:50:56;0.60;;;0.60;;
11445;SDS011;5779;64.178;15.432;2023-02-28T14:53:44;0.50;;;0.50;;
11445;SDS011;5779;64.178;15.432;2023-02-28T14:56:38;0.50;;;0.50;;
11445;SDS011;5779;64.178;15.432;2023-02-28T14:59:26;0.67;;;0.60;;
11445;SDS011;5779;64.178;15.432;2023-02-28T15:02:19;0.43;;;0.43;;
11445;SDS011;5779;64.178;15.432;2023-02-28T15:05:16;0.57;;;0.53;;
11445;SDS011;5779;64.178;15.432;2023-02-28T15:08:11;1.03;;;0.60;;
11445;SDS011;5779;64.178;15.432;2023-02-28T15:11:00;1.50;;;0.50;;
11445;SDS011;5779;64.178;15.432;2023-02-28T15:13:53;1.07;;;0.67;;
11445;SDS011;5779;64.178;15.432;2023-02-28T15:16:42;2.17;;;0.97;;
11445;SDS011;5779;64.178;15.432;2023-02-28T15:19:32;0.80;;;0.50;;
11445;SDS011;5779;64.178;15.432;2023-02-28T15:22:25;0.47;;;0.47;;
11445;SDS011;5779;64.178;15.432;2023-02-28T15:25:16;1.70;;;0.70;;
11445;SDS011;5779;64.178;15.432;2023-02-28T15:28:09;1.50;;;0.60;;
11445;SDS011;5779;64.178;15.432;2023-02-28T15:31:02;1.00;;;0.47;;
11445;SDS011;5779;64.178;15.432;2023-02-28T15:34:05;0.77;;;0.40;;
11445;SDS011;5779;64.178;15.432;2023-02-28T15:36:52;0.33;;;0.33;;
11445;SDS011;5779;64.178;15.432;2023-02-28T15:39:41;4.13;;;0.73;;
11445;SDS011;5779;64.178;15.432;2023-02-28T15:42:30;0.47;;;0.43;;
11445;SDS011;5779;64.178;15.432;2023-02-28T15:45:27;0.30;;;0.30;;
11445;SDS011;5779;64.178;15.432;2023-02-28T15:48:20;0.40;;;0.40;;
11445;SDS011;5779;64.178;15.432;2023-02-28T15:51:13;0.47;;;0.47;;
11445;SDS011;5779;64.178;15.432;2023-02-28T15:54:04;1.93;;;0.73;;
11445;SDS011;5779;64.178;15.432;2023-02-28T15:56:53;0.47;;;0.40;;
11445;SDS011;5779;64.178;15.432;2023-02-28T19:06:47;0.20;;;0.20;;
11445;SDS011;5779;64.178;15.432;2023-02-28T19:09:40;0.20;;;0.20;;
11445;SDS011;5779;64.178;15.432;2023-02-28T19:12:27;0.33;;;0.30;;
11445;SDS011;5779;64.178;15.432;2023-02-28T19:15:14;0.80;;;0.27;;
11445;SDS011;5779;64.178;15.432;2023-02-28T19:18:07;0.20;;;0.20;;
11445;SDS011;5779;64.178;15.432;2023-02-28T19:21:00;0.37;;;0.37;;
11445;SDS011;5779;64.178;15.432;2023-02-28T19:23:54;0.20;;;0.20;;
11445;SDS011;5779;64.178;15.432;2023-02-28T19:26:41;0.10;;;0.10;;
11445;SDS011;5779;64.178;15.432;2023-02-28T19:29:28;0.20;;;0.20;;
11445;SDS011;5779;64.178;15.432;2023-02-28T19:32:15;0.20;;;0.20;;
11445;SDS011;5779;64.178;15.432;2023-02-28T19:35:02;0.23;;;0.23;;
11445;SDS011;5779;64.178;15.432;2023-02-28T19:37:49;0.63;;;0.30;;
11445;SDS011;5779;64.178;15.432;2023-02-28T19:40:38;1.10;;;0.30;;
11445;SDS011;5779;64.178;15.432;2023-02-28T19:43:25;0.13;;;0.13;;
11445;SDS011;5779;64.178;15.432;2023-02-28T19:46:12;0.10;;;0.10;;
11445;SDS011;5779;64.178;15.432;2023-02-28T19:48:58;0.27;;;0.27;;
11445;SDS011;5779;64.178;15.432;2023-02-28T19:51:45;0.30;;;0.30;;
11445;SDS011;5779;64.178;15.432;2023-02-28T19:54:32;0.20;;;0.20;;
11445;SDS011;5779;64.178;15.432;2023-02-28T19:57:21;0.10;;;0.10;;
11445;SDS011;5779;64.178;15.432;2023-02-28T20:00:08;1.03;;;0.27;;
11445;SDS011;5779;64.178;15.432;2023-02-28T20:02:56;0.33;;;0.27;;
11445;SDS011;5779;64.178;15.432;2023-02-28T20:05:43;0.30;;;0.30;;
11445;SDS011;5779;64.178;15.432;2023-02-28T20:08:30;0.23;;;0.23;;
11445;SDS011;5779;64.178;15.432;2023-02-28T20:11:17;0.20;;;0.20;;
11445;SDS011;5779;64.178;15.432;2023-02-28T20:14:05;0.50;;;0.50;;
11445;SDS011;5779;64.178;15.432;2023-02-28T20:16:52;0.20;;;0.20;;
11445;SDS011;5779;64.178;15.432;2023-02-28T20:19:39;0.23;;;0.23;;
11445;SDS011;5779;64.178;15.432;2023-02-28T20:22:26;0.27;;;0.27;;
11445;SDS011;5779;64.178;15.432;2023-02-28T20:25:13;0.20;;;0.20;;
11445;SDS011;5779;64.178;15.432;2023-02-28T20:28:00;0.20;;;0.20;;
11445;SDS011;5779;64.178;15.432;2023-02-28T20:30:48;0.20;;;0.20;;
11445;SDS011;5779;64.178;15.432;2023-02-28T20:33:35;0.23;;;0.23;;
11445;SDS011;5779;64.178;15.432;2023-02-28T20:36:22;0.30;;;0.30;;
11445;SDS011;5779;64.178;15.432;2023-02-28T20:39:09;0.40;;;0.40;;
11445;SDS011;5779;64.178;15.432;2023-02-28T20:41:57;0.20;;;0.20;;